sensor_id;sensor_type;location;lat;lon;timestamp;P1;durP1;ratioP1;P2;durP2;ratioP2
17648;SDS011;8943;51.110;-4.158;2022-08-03T00:00:58;2.63;;;0.70;;
17648;SDS011;8943;51.110;-4.158;2022-08-03T00:03:27;3.63;;;0.83;;
17648;SDS011;8943;51.110;-4.158;2022-08-03T00:05:55;4.90;;;1.10;;
17648;SDS011;8943;51.110;-4.158;2022-08-03T00:08:30;6.73;;;1.47;;
17648;SDS011;8943;51.110;-4.158;2022-08-03T00:11:07;9.53;;;1.37;;
17648;SDS011;8943;51.110;-4.158;2022-08-03T00:13:36;2.70;;;0.80;;
17648;SDS011;8943;51.110;-4.158;2022-08-03T00:16:04;5.00;;;0.93;;
17648;SDS011;8943;51.110;-4.158;2022-08-03T00:18:33;3.07;;;1.00;;
17648;SDS011;8943;51.110;-4.158;2022-08-03T00:21:02;1.63;;;0.73;;
17648;SDS011;8943;51.110;-4.158;2022-08-03T00:23:34;3.70;;;0.87;;
17648;SDS011;8943;51.110;-4.158;2022-08-03T00:26:18;4.97;;;2.10;;
17648;SDS011;8943;51.110;-4.158;2022-08-03T00:28:47;4.80;;;1.30;;
17648;SDS011;8943;51.110;-4.158;2022-08-03T00:31:17;3.07;;;1.10;;
17648;SDS011;8943;51.110;-4.158;2022-08-03T00:34:09;8.87;;;1.30;;
17648;SDS011;8943;51.110;-4.158;2022-08-03T00:36:38;8.47;;;1.83;;
17648;SDS011;8943;51.110;-4.158;2022-08-03T00:39:11;5.10;;;1.27;;
17648;SDS011;8943;51.110;-4.158;2022-08-03T00:44:44;4.13;;;1.17;;
17648;SDS011;8943;51.110;-4.158;2022-08-03T00:47:26;4.73;;;1.00;;
17648;SDS011;8943;51.110;-4.158;2022-08-03T00:49:54;6.33;;;1.03;;
17648;SDS011;8943;51.110;-4.158;2022-08-03T00:52:24;4.27;;;1.00;;
17648;SDS011;8943;51.110;-4.158;2022-08-03T00:54:53;4.30;;;1.40;;
17648;SDS011;8943;51.110;-4.158;2022-08-03T00:57:24;7.53;;;1.57;;
17648;SDS011;8943;51.110;-4.158;2022-08-03T00:59:54;5.00;;;1.50;;
17648;SDS011;8943;51.110;-4.158;2022-08-03T01:02:23;6.30;;;1.57;;
17648;SDS011;8943;51.110;-4.158;2022-08-03T01:04:51;3.87;;;1.40;;
17648;SDS011;8943;51.110;-4.158;2022-08-03T01:07:22;2.93;;;1.10;;
17648;SDS011;8943;51.110;-4.158;2022-08-03T01:09:59;3.80;;;1.30;;
17648;SDS011;8943;51.110;-4.158;2022-08-03T01:12:36;5.37;;;1.40;;
17648;SDS011;8943;51.110;-4.158;2022-08-03T01:15:10;5.17;;;1.40;;
17648;SDS011;8943;51.110;-4.158;2022-08-03T01:17:45;3.93;;;1.17;;
17648;SDS011;8943;51.110;-4.158;2022-08-03T01:20:21;3.07;;;1.50;;
17648;SDS011;8943;51.110;-4.158;2022-08-03T01:23:03;3.13;;;1.20;;
17648;SDS011;8943;51.110;-4.158;2022-08-03T01:26:12;3.73;;;1.60;;
17648;SDS011;8943;51.110;-4.158;2022-08-03T01:32:01;7.07;;;1.57;;
17648;SDS011;8943;51.110;-4.158;2022-08-03T01:35:02;4.73;;;1.43;;
17648;SDS011;8943;51.110;-4.158;2022-08-03T01:37:37;5.80;;;1.43;;
17648;SDS011;8943;51.110;-4.158;2022-08-03T01:40:09;6.07;;;1.50;;
17648;SDS011;8943;51.110;-4.158;2022-08-03T01:42:43;3.77;;;1.33;;
17648;SDS011;8943;51.110;-4.158;2022-08-03T01:45:24;4.00;;;1.23;;
17648;SDS011;8943;51.110;-4.158;2022-08-03T01:48:01;5.57;;;1.40;;
17648;SDS011;8943;51.110;-4.158;2022-08-03T01:50:30;5.20;;;2.17;;
17648;SDS011;8943;51.110;-4.158;2022-08-03T01:52:59;3.60;;;1.33;;
17648;SDS011;8943;51.110;-4.158;2022-08-03T01:55:30;6.17;;;1.70;;
17648;SDS011;8943;51.110;-4.158;2022-08-03T01:58:04;7.83;;;2.13;;
17648;SDS011;8943;51.110;-4.158;2022-08-03T02:00:34;3.87;;;1.80;;
17648;SDS011;8943;51.110;-4.158;2022-08-03T02:03:06;7.47;;;1.77;;
17648;SDS011;8943;51.110;-4.158;2022-08-03T02:05:45;4.50;;;1.60;;
17648;SDS011;8943;51.110;-4.158;2022-08-03T02:08:42;6.23;;;1.60;;
17648;SDS011;8943;51.110;-4.158;2022-08-03T02:11:14;6.97;;;1.70;;
17648;SDS011;8943;51.110;-4.158;2022-08-03T02:13:46;5.47;;;1.63;;
17648;SDS011;8943;51.110;-4.158;2022-08-03T02:16:16;4.17;;;1.37;;
17648;SDS011;8943;51.110;-4.158;2022-08-03T02:18:52;6.90;;;1.50;;
17648;SDS011;8943;51.110;-4.158;2022-08-03T02:21:24;6.20;;;1.50;;
17648;SDS011;8943;51.110;-4.158;2022-08-03T02:24:18;6.50;;;2.30;;
17648;SDS011;8943;51.110;-4.158;2022-08-03T02:26:48;3.53;;;1.40;;
17648;SDS011;8943;51.110;-4.158;2022-08-03T02:29:19;3.93;;;1.70;;
17648;SDS011;8943;51.110;-4.158;2022-08-03T02:32:06;9.23;;;1.67;;
17648;SDS011;8943;51.110;-4.158;2022-08-03T02:34:39;6.50;;;1.57;;
17648;SDS011;8943;51.110;-4.158;2022-08-03T02:39:52;7.07;;;1.80;;
17648;SDS011;8943;51.110;-4.158;2022-08-03T02:42:31;4.50;;;1.80;;
17648;SDS011;8943;51.110;-4.158;2022-08-03T02:45:16;6.57;;;1.73;;
17648;SDS011;8943;51.110;-4.158;2022-08-03T02:47:47;7.53;;;1.77;;
17648;SDS011;8943;51.110;-4.158;2022-08-03T02:50:35;7.87;;;2.07;;
17648;SDS011;8943;51.110;-4.158;2022-08-03T02:53:04;4.83;;;1.53;;
17648;SDS011;8943;51.110;-4.158;2022-08-03T02:55:34;17.10;;;2.07;;
17648;SDS011;8943;51.110;-4.158;2022-08-03T02:58:11;9.03;;;2.13;;
17648;SDS011;8943;51.110;-4.158;2022-08-03T03:00:42;4.20;;;1.40;;
17648;SDS011;8943;51.110;-4.158;2022-08-03T03:03:15;3.43;;;1.20;;
17648;SDS011;8943;51.110;-4.158;2022-08-03T03:05:48;6.17;;;1.87;;
17648;SDS011;8943;51.110;-4.158;2022-08-03T03:08:23;9.93;;;1.73;;
17648;SDS011;8943;51.110;-4.158;2022-08-03T03:10:56;4.97;;;2.00;;
17648;SDS011;8943;51.110;-4.158;2022-08-03T03:13:30;7.63;;;2.10;;
17648;SDS011;8943;51.110;-4.158;2022-08-03T03:16:10;4.53;;;1.57;;
17648;SDS011;8943;51.110;-4.158;2022-08-03T03:19:38;4.33;;;1.50;;
17648;SDS011;8943;51.110;-4.158;2022-08-03T03:25:59;4.33;;;1.60;;
17648;SDS011;8943;51.110;-4.158;2022-08-03T03:28:29;3.23;;;1.57;;
17648;SDS011;8943;51.110;-4.158;2022-08-03T03:31:12;9.33;;;1.60;;
17648;SDS011;8943;51.110;-4.158;2022-08-03T03:33:44;3.23;;;1.30;;
17648;SDS011;8943;51.110;-4.158;2022-08-03T03:36:12;4.60;;;1.40;;
17648;SDS011;8943;51.110;-4.158;2022-08-03T03:38:43;3.77;;;1.17;;
17648;SDS011;8943;51.110;-4.158;2022-08-03T03:41:11;5.97;;;1.40;;
17648;SDS011;8943;51.110;-4.158;2022-08-03T03:43:41;6.23;;;1.10;;
17648;SDS011;8943;51.110;-4.158;2022-08-03T03:46:11;8.03;;;1.10;;
17648;SDS011;8943;51.110;-4.158;2022-08-03T03:48:39;3.30;;;1.13;;
17648;SDS011;8943;51.110;-4.158;2022-08-03T03:51:09;4.57;;;1.17;;
17648;SDS011;8943;51.110;-4.158;2022-08-03T03:53:49;4.83;;;1.23;;
17648;SDS011;8943;51.110;-4.158;2022-08-03T03:56:25;11.13;;;1.73;;
17648;SDS011;8943;51.110;-4.158;2022-08-03T03:59:05;6.57;;;1.33;;
17648;SDS011;8943;51.110;-4.158;2022-08-03T04:01:33;8.57;;;1.47;;
17648;SDS011;8943;51.110;-4.158;2022-08-03T04:04:03;4.53;;;1.50;;
17648;SDS011;8943;51.110;-4.158;2022-08-03T04:06:47;10.83;;;1.90;;
17648;SDS011;8943;51.110;-4.158;2022-08-03T04:09:36;7.70;;;1.27;;
17648;SDS011;8943;51.110;-4.158;2022-08-03T04:12:34;2.93;;;0.97;;
17648;SDS011;8943;51.110;-4.158;2022-08-03T04:15:15;8.47;;;1.20;;
17648;SDS011;8943;51.110;-4.158;2022-08-03T04:17:47;3.70;;;1.03;;
17648;SDS011;8943;51.110;-4.158;2022-08-03T04:20:19;8.90;;;1.77;;
17648;SDS011;8943;51.110;-4.158;2022-08-03T04:22:49;11.17;;;1.70;;
17648;SDS011;8943;51.110;-4.158;2022-08-03T04:25:22;7.70;;;1.33;;
17648;SDS011;8943;51.110;-4.158;2022-08-03T04:27:54;6.23;;;1.07;;
17648;SDS011;8943;51.110;-4.158;2022-08-03T04:30:45;3.67;;;1.00;;
17648;SDS011;8943;51.110;-4.158;2022-08-03T04:33:16;6.70;;;1.53;;
17648;SDS011;8943;51.110;-4.158;2022-08-03T04:35:48;3.23;;;1.00;;
17648;SDS011;8943;51.110;-4.158;2022-08-03T04:38:28;7.40;;;1.00;;
17648;SDS011;8943;51.110;-4.158;2022-08-03T04:41:02;3.63;;;1.10;;
17648;SDS011;8943;51.110;-4.158;2022-08-03T04:43:33;6.60;;;1.07;;
17648;SDS011;8943;51.110;-4.158;2022-08-03T04:46:05;4.53;;;1.17;;
17648;SDS011;8943;51.110;-4.158;2022-08-03T04:48:38;9.23;;;1.50;;
17648;SDS011;8943;51.110;-4.158;2022-08-03T04:51:11;6.20;;;1.20;;
17648;SDS011;8943;51.110;-4.158;2022-08-03T04:53:45;7.30;;;1.20;;
17648;SDS011;8943;51.110;-4.158;2022-08-03T04:56:16;4.73;;;1.07;;
17648;SDS011;8943;51.110;-4.158;2022-08-03T04:58:48;2.93;;;0.87;;
17648;SDS011;8943;51.110;-4.158;2022-08-03T05:01:32;9.40;;;1.60;;
17648;SDS011;8943;51.110;-4.158;2022-08-03T05:04:01;4.50;;;0.70;;
17648;SDS011;8943;51.110;-4.158;2022-08-03T05:06:30;6.40;;;1.40;;
17648;SDS011;8943;51.110;-4.158;2022-08-03T05:09:01;8.07;;;1.00;;
17648;SDS011;8943;51.110;-4.158;2022-08-03T05:11:36;7.23;;;1.33;;
17648;SDS011;8943;51.110;-4.158;2022-08-03T05:14:04;7.23;;;1.37;;
17648;SDS011;8943;51.110;-4.158;2022-08-03T05:16:33;5.60;;;1.17;;
17648;SDS011;8943;51.110;-4.158;2022-08-03T05:19:01;6.67;;;1.43;;
17648;SDS011;8943;51.110;-4.158;2022-08-03T05:21:30;4.83;;;0.83;;
17648;SDS011;8943;51.110;-4.158;2022-08-03T05:24:20;3.63;;;1.37;;
17648;SDS011;8943;51.110;-4.158;2022-08-03T05:26:50;5.13;;;1.30;;
17648;SDS011;8943;51.110;-4.158;2022-08-03T05:29:18;4.33;;;1.40;;
17648;SDS011;8943;51.110;-4.158;2022-08-03T05:31:47;5.83;;;1.63;;
17648;SDS011;8943;51.110;-4.158;2022-08-03T05:34:16;6.67;;;1.50;;
17648;SDS011;8943;51.110;-4.158;2022-08-03T05:36:45;8.63;;;1.57;;
17648;SDS011;8943;51.110;-4.158;2022-08-03T05:39:13;7.87;;;1.80;;
17648;SDS011;8943;51.110;-4.158;2022-08-03T05:41:42;9.03;;;1.90;;
17648;SDS011;8943;51.110;-4.158;2022-08-03T05:44:12;4.67;;;1.50;;
17648;SDS011;8943;51.110;-4.158;2022-08-03T05:46:41;4.00;;;1.30;;
17648;SDS011;8943;51.110;-4.158;2022-08-03T05:49:09;3.97;;;1.50;;
17648;SDS011;8943;51.110;-4.158;2022-08-03T05:51:37;6.77;;;1.50;;
17648;SDS011;8943;51.110;-4.158;2022-08-03T05:54:09;3.70;;;1.20;;
17648;SDS011;8943;51.110;-4.158;2022-08-03T05:56:38;7.63;;;1.77;;
17648;SDS011;8943;51.110;-4.158;2022-08-03T05:59:06;14.13;;;1.70;;
17648;SDS011;8943;51.110;-4.158;2022-08-03T06:01:57;6.60;;;1.93;;
17648;SDS011;8943;51.110;-4.158;2022-08-03T06:04:25;10.03;;;1.57;;
17648;SDS011;8943;51.110;-4.158;2022-08-03T06:06:54;6.57;;;1.70;;
17648;SDS011;8943;51.110;-4.158;2022-08-03T06:09:23;7.83;;;2.00;;
17648;SDS011;8943;51.110;-4.158;2022-08-03T06:12:11;4.67;;;1.80;;
17648;SDS011;8943;51.110;-4.158;2022-08-03T06:14:41;1.43;;;0.63;;
17648;SDS011;8943;51.110;-4.158;2022-08-03T06:17:15;2.20;;;0.80;;
17648;SDS011;8943;51.110;-4.158;2022-08-03T06:19:44;3.13;;;1.00;;
17648;SDS011;8943;51.110;-4.158;2022-08-03T06:22:13;2.30;;;0.93;;
17648;SDS011;8943;51.110;-4.158;2022-08-03T06:24:42;0.97;;;0.90;;
17648;SDS011;8943;51.110;-4.158;2022-08-03T06:27:19;1.67;;;0.93;;
17648;SDS011;8943;51.110;-4.158;2022-08-03T06:30:02;1.53;;;0.80;;
17648;SDS011;8943;51.110;-4.158;2022-08-03T06:32:33;1.70;;;1.20;;
17648;SDS011;8943;51.110;-4.158;2022-08-03T06:35:01;3.27;;;1.30;;
17648;SDS011;8943;51.110;-4.158;2022-08-03T06:37:29;1.57;;;1.10;;
17648;SDS011;8943;51.110;-4.158;2022-08-03T06:40:00;2.60;;;1.30;;
17648;SDS011;8943;51.110;-4.158;2022-08-03T06:42:33;3.43;;;1.33;;
17648;SDS011;8943;51.110;-4.158;2022-08-03T06:45:01;4.13;;;1.30;;
17648;SDS011;8943;51.110;-4.158;2022-08-03T06:47:32;4.40;;;1.83;;
17648;SDS011;8943;51.110;-4.158;2022-08-03T06:50:01;1.60;;;1.30;;
17648;SDS011;8943;51.110;-4.158;2022-08-03T06:52:42;2.70;;;1.37;;
17648;SDS011;8943;51.110;-4.158;2022-08-03T06:55:11;2.40;;;0.90;;
17648;SDS011;8943;51.110;-4.158;2022-08-03T06:57:39;4.23;;;1.20;;
17648;SDS011;8943;51.110;-4.158;2022-08-03T07:00:07;1.67;;;1.00;;
17648;SDS011;8943;51.110;-4.158;2022-08-03T07:02:39;1.60;;;1.30;;
17648;SDS011;8943;51.110;-4.158;2022-08-03T07:05:08;3.47;;;1.57;;
17648;SDS011;8943;51.110;-4.158;2022-08-03T07:07:37;7.47;;;2.00;;
17648;SDS011;8943;51.110;-4.158;2022-08-03T07:10:07;8.07;;;2.33;;
17648;SDS011;8943;51.110;-4.158;2022-08-03T07:12:37;5.13;;;1.97;;
17648;SDS011;8943;51.110;-4.158;2022-08-03T07:15:21;7.07;;;1.90;;
17648;SDS011;8943;51.110;-4.158;2022-08-03T07:18:12;5.87;;;1.63;;
17648;SDS011;8943;51.110;-4.158;2022-08-03T07:20:41;4.17;;;1.70;;
17648;SDS011;8943;51.110;-4.158;2022-08-03T07:23:12;8.63;;;2.20;;
17648;SDS011;8943;51.110;-4.158;2022-08-03T07:25:45;7.83;;;2.50;;
17648;SDS011;8943;51.110;-4.158;2022-08-03T07:28:13;9.23;;;1.93;;
17648;SDS011;8943;51.110;-4.158;2022-08-03T07:30:44;17.57;;;3.37;;
17648;SDS011;8943;51.110;-4.158;2022-08-03T07:33:13;6.97;;;2.70;;
17648;SDS011;8943;51.110;-4.158;2022-08-03T07:35:42;7.97;;;2.67;;
17648;SDS011;8943;51.110;-4.158;2022-08-03T07:38:10;6.63;;;2.97;;
17648;SDS011;8943;51.110;-4.158;2022-08-03T07:40:39;8.93;;;3.27;;
17648;SDS011;8943;51.110;-4.158;2022-08-03T07:43:11;10.90;;;3.20;;
17648;SDS011;8943;51.110;-4.158;2022-08-03T07:45:40;10.70;;;3.93;;
17648;SDS011;8943;51.110;-4.158;2022-08-03T07:48:09;11.13;;;3.53;;
17648;SDS011;8943;51.110;-4.158;2022-08-03T07:50:39;11.63;;;3.40;;
17648;SDS011;8943;51.110;-4.158;2022-08-03T07:53:07;14.60;;;3.60;;
17648;SDS011;8943;51.110;-4.158;2022-08-03T07:55:36;11.57;;;4.23;;
17648;SDS011;8943;51.110;-4.158;2022-08-03T07:58:05;17.57;;;4.33;;
17648;SDS011;8943;51.110;-4.158;2022-08-03T08:00:38;10.63;;;3.27;;
17648;SDS011;8943;51.110;-4.158;2022-08-03T08:03:06;8.63;;;3.77;;
17648;SDS011;8943;51.110;-4.158;2022-08-03T08:05:35;10.37;;;3.63;;
17648;SDS011;8943;51.110;-4.158;2022-08-03T08:08:07;12.00;;;2.90;;
17648;SDS011;8943;51.110;-4.158;2022-08-03T08:10:35;10.83;;;2.67;;
17648;SDS011;8943;51.110;-4.158;2022-08-03T08:13:04;13.70;;;3.93;;
17648;SDS011;8943;51.110;-4.158;2022-08-03T08:15:33;20.83;;;3.63;;
17648;SDS011;8943;51.110;-4.158;2022-08-03T08:18:08;13.00;;;3.30;;
17648;SDS011;8943;51.110;-4.158;2022-08-03T08:20:37;8.50;;;3.10;;
17648;SDS011;8943;51.110;-4.158;2022-08-03T08:23:09;6.03;;;2.60;;
17648;SDS011;8943;51.110;-4.158;2022-08-03T08:25:58;11.93;;;3.70;;
17648;SDS011;8943;51.110;-4.158;2022-08-03T08:28:26;7.63;;;3.07;;
17648;SDS011;8943;51.110;-4.158;2022-08-03T08:30:59;11.20;;;3.23;;
17648;SDS011;8943;51.110;-4.158;2022-08-03T08:33:28;9.43;;;2.50;;
17648;SDS011;8943;51.110;-4.158;2022-08-03T08:36:30;13.63;;;2.93;;
17648;SDS011;8943;51.110;-4.158;2022-08-03T08:39:13;10.50;;;2.83;;
17648;SDS011;8943;51.110;-4.158;2022-08-03T08:41:49;6.37;;;1.37;;
17648;SDS011;8943;51.110;-4.158;2022-08-03T08:44:37;9.40;;;2.30;;
17648;SDS011;8943;51.110;-4.158;2022-08-03T08:47:10;10.80;;;2.00;;
17648;SDS011;8943;51.110;-4.158;2022-08-03T08:50:18;6.80;;;2.13;;
17648;SDS011;8943;51.110;-4.158;2022-08-03T08:52:59;7.63;;;2.17;;
17648;SDS011;8943;51.110;-4.158;2022-08-03T08:55:37;4.97;;;1.43;;
17648;SDS011;8943;51.110;-4.158;2022-08-03T08:58:28;6.20;;;2.10;;
17648;SDS011;8943;51.110;-4.158;2022-08-03T09:01:04;7.90;;;1.87;;
17648;SDS011;8943;51.110;-4.158;2022-08-03T09:03:36;9.13;;;1.97;;
17648;SDS011;8943;51.110;-4.158;2022-08-03T09:06:09;5.37;;;1.63;;
17648;SDS011;8943;51.110;-4.158;2022-08-03T09:08:38;8.40;;;1.77;;
17648;SDS011;8943;51.110;-4.158;2022-08-03T09:19:40;6.43;;;1.77;;
17648;SDS011;8943;51.110;-4.158;2022-08-03T09:22:29;8.73;;;1.87;;
17648;SDS011;8943;51.110;-4.158;2022-08-03T09:27:40;8.10;;;1.80;;
17648;SDS011;8943;51.110;-4.158;2022-08-03T09:30:13;4.67;;;1.53;;
17648;SDS011;8943;51.110;-4.158;2022-08-03T09:32:59;4.17;;;1.60;;
17648;SDS011;8943;51.110;-4.158;2022-08-03T09:35:50;7.43;;;1.60;;
17648;SDS011;8943;51.110;-4.158;2022-08-03T09:38:27;5.43;;;2.43;;
17648;SDS011;8943;51.110;-4.158;2022-08-03T09:40:57;3.87;;;1.80;;
17648;SDS011;8943;51.110;-4.158;2022-08-03T09:43:26;5.87;;;1.60;;
17648;SDS011;8943;51.110;-4.158;2022-08-03T09:46:21;4.50;;;1.80;;
17648;SDS011;8943;51.110;-4.158;2022-08-03T09:49:11;7.60;;;2.00;;
17648;SDS011;8943;51.110;-4.158;2022-08-03T09:52:11;4.83;;;2.30;;
17648;SDS011;8943;51.110;-4.158;2022-08-03T09:55:10;9.10;;;1.80;;
17648;SDS011;8943;51.110;-4.158;2022-08-03T09:58:04;3.87;;;1.50;;
17648;SDS011;8943;51.110;-4.158;2022-08-03T10:12:21;6.50;;;1.60;;
17648;SDS011;8943;51.110;-4.158;2022-08-03T10:14:50;6.30;;;2.00;;
17648;SDS011;8943;51.110;-4.158;2022-08-03T10:17:21;4.80;;;1.60;;
17648;SDS011;8943;51.110;-4.158;2022-08-03T10:19:51;9.47;;;1.97;;
17648;SDS011;8943;51.110;-4.158;2022-08-03T10:22:22;5.50;;;1.80;;
17648;SDS011;8943;51.110;-4.158;2022-08-03T10:33:50;4.87;;;1.60;;
17648;SDS011;8943;51.110;-4.158;2022-08-03T10:39:17;5.53;;;1.13;;
17648;SDS011;8943;51.110;-4.158;2022-08-03T10:47:23;6.73;;;1.47;;
17648;SDS011;8943;51.110;-4.158;2022-08-03T10:49:53;7.33;;;2.07;;
17648;SDS011;8943;51.110;-4.158;2022-08-03T10:52:25;4.33;;;1.60;;
17648;SDS011;8943;51.110;-4.158;2022-08-03T10:55:01;5.23;;;1.60;;
17648;SDS011;8943;51.110;-4.158;2022-08-03T11:01:54;6.53;;;1.50;;
17648;SDS011;8943;51.110;-4.158;2022-08-03T11:04:29;3.50;;;1.53;;
17648;SDS011;8943;51.110;-4.158;2022-08-03T11:07:31;6.60;;;1.90;;
17648;SDS011;8943;51.110;-4.158;2022-08-03T11:10:28;6.00;;;1.80;;
17648;SDS011;8943;51.110;-4.158;2022-08-03T11:13:04;6.93;;;1.60;;
17648;SDS011;8943;51.110;-4.158;2022-08-03T11:15:49;2.43;;;1.33;;
17648;SDS011;8943;51.110;-4.158;2022-08-03T11:18:27;5.93;;;1.57;;
17648;SDS011;8943;51.110;-4.158;2022-08-03T11:21:10;1.90;;;1.30;;
17648;SDS011;8943;51.110;-4.158;2022-08-03T11:23:42;6.90;;;1.63;;
17648;SDS011;8943;51.110;-4.158;2022-08-03T11:26:32;5.80;;;1.90;;
17648;SDS011;8943;51.110;-4.158;2022-08-03T11:32:05;9.23;;;1.60;;
17648;SDS011;8943;51.110;-4.158;2022-08-03T11:34:35;4.53;;;1.70;;
17648;SDS011;8943;51.110;-4.158;2022-08-03T11:38:00;4.03;;;1.10;;
17648;SDS011;8943;51.110;-4.158;2022-08-03T11:41:00;7.83;;;1.93;;
17648;SDS011;8943;51.110;-4.158;2022-08-03T11:47:05;6.03;;;1.80;;
17648;SDS011;8943;51.110;-4.158;2022-08-03T11:50:04;4.57;;;1.77;;
17648;SDS011;8943;51.110;-4.158;2022-08-03T11:52:46;6.33;;;1.57;;
17648;SDS011;8943;51.110;-4.158;2022-08-03T11:55:19;4.97;;;1.50;;
17648;SDS011;8943;51.110;-4.158;2022-08-03T11:57:57;4.17;;;1.60;;
17648;SDS011;8943;51.110;-4.158;2022-08-03T12:01:05;4.20;;;1.67;;
17648;SDS011;8943;51.110;-4.158;2022-08-03T12:04:02;8.77;;;2.00;;
17648;SDS011;8943;51.110;-4.158;2022-08-03T12:06:46;7.70;;;1.80;;
17648;SDS011;8943;51.110;-4.158;2022-08-03T12:09:27;6.60;;;1.60;;
17648;SDS011;8943;51.110;-4.158;2022-08-03T12:11:55;6.23;;;1.83;;
17648;SDS011;8943;51.110;-4.158;2022-08-03T12:14:47;3.33;;;0.90;;
17648;SDS011;8943;51.110;-4.158;2022-08-03T12:17:19;5.27;;;1.33;;
17648;SDS011;8943;51.110;-4.158;2022-08-03T12:19:49;5.47;;;1.57;;
17648;SDS011;8943;51.110;-4.158;2022-08-03T12:22:29;5.27;;;1.70;;
17648;SDS011;8943;51.110;-4.158;2022-08-03T12:25:06;2.60;;;1.07;;
17648;SDS011;8943;51.110;-4.158;2022-08-03T12:27:39;3.00;;;1.63;;
17648;SDS011;8943;51.110;-4.158;2022-08-03T12:30:10;3.97;;;1.57;;
17648;SDS011;8943;51.110;-4.158;2022-08-03T12:32:41;6.00;;;1.50;;
17648;SDS011;8943;51.110;-4.158;2022-08-03T12:35:20;3.20;;;1.20;;
17648;SDS011;8943;51.110;-4.158;2022-08-03T12:37:51;6.10;;;1.80;;
17648;SDS011;8943;51.110;-4.158;2022-08-03T12:40:26;4.03;;;1.77;;
17648;SDS011;8943;51.110;-4.158;2022-08-03T12:43:08;3.97;;;1.20;;
17648;SDS011;8943;51.110;-4.158;2022-08-03T12:45:44;2.13;;;1.23;;
17648;SDS011;8943;51.110;-4.158;2022-08-03T12:48:13;4.00;;;1.53;;
17648;SDS011;8943;51.110;-4.158;2022-08-03T12:50:42;6.50;;;1.83;;
17648;SDS011;8943;51.110;-4.158;2022-08-03T12:53:27;9.40;;;2.10;;
17648;SDS011;8943;51.110;-4.158;2022-08-03T12:56:02;5.93;;;1.70;;
17648;SDS011;8943;51.110;-4.158;2022-08-03T12:58:36;2.63;;;1.27;;
17648;SDS011;8943;51.110;-4.158;2022-08-03T13:01:05;6.20;;;1.70;;
17648;SDS011;8943;51.110;-4.158;2022-08-03T13:03:39;5.47;;;1.80;;
17648;SDS011;8943;51.110;-4.158;2022-08-03T13:06:23;4.33;;;1.50;;
17648;SDS011;8943;51.110;-4.158;2022-08-03T13:09:02;6.47;;;1.90;;
17648;SDS011;8943;51.110;-4.158;2022-08-03T13:11:50;2.97;;;1.30;;
17648;SDS011;8943;51.110;-4.158;2022-08-03T13:14:33;5.93;;;1.77;;
17648;SDS011;8943;51.110;-4.158;2022-08-03T13:17:05;5.17;;;2.07;;
17648;SDS011;8943;51.110;-4.158;2022-08-03T13:19:34;4.30;;;1.43;;
17648;SDS011;8943;51.110;-4.158;2022-08-03T13:22:11;4.13;;;1.27;;
17648;SDS011;8943;51.110;-4.158;2022-08-03T13:24:43;8.73;;;1.80;;
17648;SDS011;8943;51.110;-4.158;2022-08-03T13:27:17;3.30;;;1.70;;
17648;SDS011;8943;51.110;-4.158;2022-08-03T13:30:07;6.05;;;1.65;;
17648;SDS011;8943;51.110;-4.158;2022-08-03T13:32:38;4.45;;;1.20;;
17648;SDS011;8943;51.110;-4.158;2022-08-03T13:35:09;3.88;;;0.98;;
17648;SDS011;8943;51.110;-4.158;2022-08-03T13:37:42;5.82;;;1.40;;
17648;SDS011;8943;51.110;-4.158;2022-08-03T13:40:14;3.80;;;1.40;;
17648;SDS011;8943;51.110;-4.158;2022-08-03T13:42:57;7.25;;;1.70;;
17648;SDS011;8943;51.110;-4.158;2022-08-03T13:45:30;4.38;;;1.30;;
17648;SDS011;8943;51.110;-4.158;2022-08-03T13:48:01;6.82;;;2.13;;
17648;SDS011;8943;51.110;-4.158;2022-08-03T13:50:30;3.85;;;1.35;;
17648;SDS011;8943;51.110;-4.158;2022-08-03T13:53:00;2.42;;;1.50;;
17648;SDS011;8943;51.110;-4.158;2022-08-03T13:55:36;1.65;;;0.98;;
17648;SDS011;8943;51.110;-4.158;2022-08-03T13:58:13;5.05;;;1.45;;
17648;SDS011;8943;51.110;-4.158;2022-08-03T14:01:03;3.15;;;1.30;;
17648;SDS011;8943;51.110;-4.158;2022-08-03T14:03:34;5.40;;;1.95;;
17648;SDS011;8943;51.110;-4.158;2022-08-03T14:06:18;2.63;;;1.25;;
17648;SDS011;8943;51.110;-4.158;2022-08-03T14:08:46;4.38;;;1.65;;
17648;SDS011;8943;51.110;-4.158;2022-08-03T14:11:16;2.40;;;1.30;;
17648;SDS011;8943;51.110;-4.158;2022-08-03T14:13:49;3.78;;;1.23;;
17648;SDS011;8943;51.110;-4.158;2022-08-03T14:16:19;5.95;;;1.40;;
17648;SDS011;8943;51.110;-4.158;2022-08-03T14:18:53;4.38;;;1.65;;
17648;SDS011;8943;51.110;-4.158;2022-08-03T14:21:26;4.50;;;1.60;;
17648;SDS011;8943;51.110;-4.158;2022-08-03T14:23:55;4.97;;;1.52;;
17648;SDS011;8943;51.110;-4.158;2022-08-03T14:26:24;3.75;;;0.98;;
17648;SDS011;8943;51.110;-4.158;2022-08-03T14:28:57;2.67;;;1.17;;
17648;SDS011;8943;51.110;-4.158;2022-08-03T14:31:26;3.38;;;1.40;;
17648;SDS011;8943;51.110;-4.158;2022-08-03T14:34:14;4.07;;;1.15;;
17648;SDS011;8943;51.110;-4.158;2022-08-03T14:36:43;4.28;;;1.20;;
17648;SDS011;8943;51.110;-4.158;2022-08-03T14:39:12;3.03;;;1.30;;
17648;SDS011;8943;51.110;-4.158;2022-08-03T14:41:41;3.85;;;1.77;;
17648;SDS011;8943;51.110;-4.158;2022-08-03T14:44:14;5.93;;;1.52;;
17648;SDS011;8943;51.110;-4.158;2022-08-03T14:46:42;4.35;;;1.63;;
17648;SDS011;8943;51.110;-4.158;2022-08-03T14:49:10;4.95;;;1.80;;
17648;SDS011;8943;51.110;-4.158;2022-08-03T14:51:59;6.68;;;1.77;;
17648;SDS011;8943;51.110;-4.158;2022-08-03T14:54:31;6.93;;;2.05;;
17648;SDS011;8943;51.110;-4.158;2022-08-03T14:57:01;3.35;;;1.70;;
17648;SDS011;8943;51.110;-4.158;2022-08-03T14:59:40;4.68;;;1.75;;
17648;SDS011;8943;51.110;-4.158;2022-08-03T15:02:22;7.10;;;1.77;;
17648;SDS011;8943;51.110;-4.158;2022-08-03T15:04:59;5.53;;;1.43;;
17648;SDS011;8943;51.110;-4.158;2022-08-03T15:07:38;5.40;;;1.60;;
17648;SDS011;8943;51.110;-4.158;2022-08-03T15:10:07;3.47;;;1.67;;
17648;SDS011;8943;51.110;-4.158;2022-08-03T15:12:37;5.17;;;1.57;;
17648;SDS011;8943;51.110;-4.158;2022-08-03T15:15:12;6.67;;;1.83;;
17648;SDS011;8943;51.110;-4.158;2022-08-03T15:17:49;5.70;;;1.90;;
17648;SDS011;8943;51.110;-4.158;2022-08-03T15:20:26;3.40;;;1.60;;
17648;SDS011;8943;51.110;-4.158;2022-08-03T15:23:09;7.70;;;1.90;;
17648;SDS011;8943;51.110;-4.158;2022-08-03T15:26:19;4.63;;;1.70;;
17648;SDS011;8943;51.110;-4.158;2022-08-03T15:28:59;6.00;;;1.70;;
17648;SDS011;8943;51.110;-4.158;2022-08-03T15:32:05;2.30;;;1.13;;
17648;SDS011;8943;51.110;-4.158;2022-08-03T15:34:39;7.10;;;1.90;;
17648;SDS011;8943;51.110;-4.158;2022-08-03T15:37:16;6.75;;;2.05;;
17648;SDS011;8943;51.110;-4.158;2022-08-03T15:39:48;8.73;;;1.65;;
17648;SDS011;8943;51.110;-4.158;2022-08-03T15:42:26;5.40;;;1.92;;
17648;SDS011;8943;51.110;-4.158;2022-08-03T15:44:56;8.65;;;2.58;;
17648;SDS011;8943;51.110;-4.158;2022-08-03T15:47:33;7.53;;;2.05;;
17648;SDS011;8943;51.110;-4.158;2022-08-03T15:50:07;8.30;;;2.13;;
17648;SDS011;8943;51.110;-4.158;2022-08-03T15:53:04;4.70;;;1.77;;
17648;SDS011;8943;51.110;-4.158;2022-08-03T15:55:37;8.17;;;1.90;;
17648;SDS011;8943;51.110;-4.158;2022-08-03T15:58:07;7.30;;;2.10;;
17648;SDS011;8943;51.110;-4.158;2022-08-03T16:01:25;5.93;;;1.80;;
17648;SDS011;8943;51.110;-4.158;2022-08-03T16:03:59;8.70;;;1.95;;
17648;SDS011;8943;51.110;-4.158;2022-08-03T16:06:30;10.35;;;1.42;;
17648;SDS011;8943;51.110;-4.158;2022-08-03T16:09:20;7.22;;;1.70;;
17648;SDS011;8943;51.110;-4.158;2022-08-03T16:12:09;7.32;;;1.73;;
17648;SDS011;8943;51.110;-4.158;2022-08-03T16:14:43;11.00;;;2.90;;
17648;SDS011;8943;51.110;-4.158;2022-08-03T16:17:21;4.07;;;1.85;;
17648;SDS011;8943;51.110;-4.158;2022-08-03T16:19:51;10.50;;;2.60;;
17648;SDS011;8943;51.110;-4.158;2022-08-03T16:22:20;8.90;;;1.83;;
17648;SDS011;8943;51.110;-4.158;2022-08-03T16:24:50;6.50;;;2.05;;
17648;SDS011;8943;51.110;-4.158;2022-08-03T16:27:20;5.40;;;1.75;;
17648;SDS011;8943;51.110;-4.158;2022-08-03T16:30:10;7.45;;;1.75;;
17648;SDS011;8943;51.110;-4.158;2022-08-03T16:33:03;8.90;;;2.70;;
17648;SDS011;8943;51.110;-4.158;2022-08-03T16:35:33;5.85;;;1.95;;
17648;SDS011;8943;51.110;-4.158;2022-08-03T16:38:05;6.68;;;1.65;;
17648;SDS011;8943;51.110;-4.158;2022-08-03T16:40:50;6.10;;;1.67;;